Array ( [0] => 2014/11/27 23:00 [1] => LEIB 272300Z 22010KT 9000 FEW020 SCT030CB 17/14 Q0998 TEMPO SHRA ) Sa Trinxa - Ibiza

Bienvenidos a Sa Trinxa Ibiza

Un rincón en la playa de las Salinas donde disfrutar de la naturaleza más salvaje junto con cuerpos esculturales.

Un lugar donde la buena música, la comida equilibrada y la belleza se reúnen para ofrecerte una de las mejores playas del Mediterráneo.

Hoy en día

Ningún evento de hoy

Novedades

Visit our Facebook site

Visit our Facebook site / 27.09.2013 - 11:14

Update soon www.facebook.com/pages/Sa-Trinxa/178446275511395

Summer 2012

Summer 2012 / 11.05.2012 - 06:19

Starts

picture

Partner

adSpot
Chicaria Records
Ibiza global radio
Ibiza Sonica
Partysan
Pioneer Pro DJ